createdAt,value
2024-05-09T00:00:41.252Z,99711.34
2024-05-09T00:03:10.653Z,99713.59
2024-05-09T00:05:45.658Z,99707.53
2024-05-09T00:08:13.302Z,99706.13
2024-05-09T00:10:41.418Z,99711.09
2024-05-09T00:13:10.612Z,99708.69
2024-05-09T00:15:38.966Z,99712.31
2024-05-09T00:18:07.882Z,99714.50
2024-05-09T00:20:39.685Z,99717.06
2024-05-09T00:23:13.775Z,99716.75
2024-05-09T00:25:45.572Z,99710.34
2024-05-09T00:28:13.593Z,99717.88
2024-05-09T00:30:41.286Z,99718.13
2024-05-09T00:33:10.574Z,99719.72
2024-05-09T00:35:39.564Z,99714.63
2024-05-09T00:38:07.355Z,99712.56
2024-05-09T00:40:40.544Z,99714.22
2024-05-09T00:43:13.191Z,99707.31
2024-05-09T00:45:41.853Z,99709.56
2024-05-09T00:48:13.461Z,99707.09
2024-05-09T00:50:44.840Z,99699.94
2024-05-09T00:53:15.646Z,99695.00
2024-05-09T00:55:43.849Z,99694.16
2024-05-09T00:58:16.477Z,99692.16
2024-05-09T01:00:44.600Z,99703.06
2024-05-09T01:03:13.691Z,99697.00
2024-05-09T01:05:43.638Z,99703.28
2024-05-09T01:08:12.155Z,99702.69
2024-05-09T01:10:42.607Z,99701.72
2024-05-09T01:13:12.290Z,99701.00
2024-05-09T01:15:39.755Z,99709.38
2024-05-09T01:18:12.243Z,99708.28
2024-05-09T01:20:43.932Z,99709.00
2024-05-09T01:23:14.775Z,99709.56
2024-05-09T01:25:45.661Z,99701.78
2024-05-09T01:28:14.054Z,99702.72
2024-05-09T01:30:41.771Z,99699.53
2024-05-09T01:33:12.543Z,99696.47
2024-05-09T01:35:42.030Z,99698.00
2024-05-09T01:38:17.092Z,99692.53
2024-05-09T01:40:45.073Z,99692.94
2024-05-09T01:43:12.478Z,99702.13
2024-05-09T01:45:40.689Z,99698.78
2024-05-09T01:48:10.016Z,99699.53
2024-05-09T01:50:41.431Z,99695.78
2024-05-09T01:53:13.271Z,99706.72
2024-05-09T01:55:41.555Z,99699.41
2024-05-09T01:58:09.372Z,99708.06
2024-05-09T02:00:40.786Z,99697.94
2024-05-09T02:03:15.404Z,99705.75
2024-05-09T02:05:47.735Z,99698.94
2024-05-09T02:08:20.714Z,99702.91
2024-05-09T02:10:50.135Z,99702.13
2024-05-09T02:13:17.956Z,99696.72
2024-05-09T02:15:45.286Z,99699.66
2024-05-09T02:18:13.472Z,99699.63
2024-05-09T02:20:42.524Z,99705.00
2024-05-09T02:23:11.254Z,99701.78
2024-05-09T02:25:38.753Z,99695.06
2024-05-09T02:28:06.566Z,99700.88
2024-05-09T02:30:39.726Z,99696.78
2024-05-09T02:33:13.997Z,99689.00
2024-05-09T02:35:44.111Z,99699.88
2024-05-09T02:38:12.618Z,99699.09
2024-05-09T02:40:40.716Z,99694.53
2024-05-09T02:43:10.425Z,99702.75
2024-05-09T02:45:42.149Z,99700.50
2024-05-09T02:48:13.970Z,99697.88
2024-05-09T02:50:44.024Z,99705.22
2024-05-09T02:53:12.134Z,99702.13
2024-05-09T02:55:40.451Z,99703.59
2024-05-09T02:58:08.602Z,99708.28
2024-05-09T03:00:40.222Z,99706.69
2024-05-09T03:03:14.623Z,99712.63
2024-05-09T03:05:44.527Z,99711.31
2024-05-09T03:08:12.515Z,99717.97
2024-05-09T03:10:40.166Z,99718.19
2024-05-09T03:13:14.892Z,99718.31
2024-05-09T03:15:44.505Z,99715.09
2024-05-09T03:18:12.531Z,99716.25
2024-05-09T03:20:40.496Z,99713.03
2024-05-09T03:23:09.791Z,99706.63
2024-05-09T03:25:38.987Z,99720.41
2024-05-09T03:28:06.708Z,99718.63
2024-05-09T03:30:40.452Z,99717.19
2024-05-09T03:33:13.163Z,99713.00
2024-05-09T03:35:41.757Z,99709.88
2024-05-09T03:38:09.843Z,99719.72
2024-05-09T03:40:44.833Z,99720.81
2024-05-09T03:43:13.451Z,99717.94
2024-05-09T03:45:40.966Z,99709.41
2024-05-09T03:48:09.031Z,99718.81
2024-05-09T03:50:37.244Z,99712.84
2024-05-09T03:53:05.689Z,99705.16
2024-05-09T03:55:32.987Z,99703.19
2024-05-09T03:58:00.306Z,99698.50
2024-05-09T04:00:35.582Z,99713.59
2024-05-09T04:03:11.136Z,99716.06
2024-05-09T04:05:42.855Z,99715.28
2024-05-09T04:08:14.391Z,99716.00
2024-05-09T04:10:41.868Z,99719.97
2024-05-09T04:13:10.636Z,99721.16
2024-05-09T04:15:37.928Z,99715.78
2024-05-09T04:18:05.687Z,99722.91
2024-05-09T04:20:38.411Z,99726.69
2024-05-09T04:23:12.736Z,99722.66
2024-05-09T04:25:45.242Z,99717.88
2024-05-09T04:28:13.999Z,99712.06
2024-05-09T04:30:42.219Z,99718.94
2024-05-09T04:33:12.509Z,99719.28
2024-05-09T04:35:45.130Z,99720.22
2024-05-09T04:38:14.306Z,99715.53
2024-05-09T04:40:42.270Z,99710.63
2024-05-09T04:43:17.377Z,99714.28
2024-05-09T04:45:45.128Z,99707.28
2024-05-09T04:48:12.527Z,99712.91
2024-05-09T04:50:40.239Z,99724.69
2024-05-09T04:53:10.339Z,99723.41
2024-05-09T04:55:39.921Z,99722.78
2024-05-09T04:58:09.528Z,99722.78
2024-05-09T05:00:38.864Z,99733.28
2024-05-09T05:03:13.046Z,99728.31
2024-05-09T05:05:44.894Z,99730.13
2024-05-09T05:08:19.022Z,99727.34
2024-05-09T05:10:48.248Z,99729.66
2024-05-09T05:13:17.744Z,99732.47
2024-05-09T05:15:47.302Z,99729.44
2024-05-09T05:18:16.117Z,99732.56
2024-05-09T05:20:44.534Z,99736.16
2024-05-09T05:23:15.286Z,99733.44
2024-05-09T05:25:43.900Z,99733.94
2024-05-09T05:28:11.590Z,99735.22
2024-05-09T05:30:41.060Z,99740.06
2024-05-09T05:33:12.394Z,99736.94
2024-05-09T05:35:41.752Z,99733.34
2024-05-09T05:38:10.403Z,99741.38
2024-05-09T05:40:39.050Z,99735.44
2024-05-09T05:43:09.856Z,99732.41
2024-05-09T05:45:38.592Z,99734.81
2024-05-09T05:48:07.758Z,99743.91
2024-05-09T05:50:37.694Z,99742.13
2024-05-09T05:53:08.017Z,99748.00
2024-05-09T05:55:40.903Z,99748.19
2024-05-09T05:58:12.053Z,99738.88
2024-05-09T06:00:41.919Z,99742.44
2024-05-09T06:03:12.487Z,99743.53
2024-05-09T06:05:40.899Z,99745.41
2024-05-09T06:08:08.825Z,99734.09
2024-05-09T06:10:39.506Z,99747.78
2024-05-09T06:13:12.275Z,99737.91
2024-05-09T06:15:40.837Z,99744.66
2024-05-09T06:18:10.879Z,99746.50
2024-05-09T06:20:44.233Z,99750.72
2024-05-09T06:23:13.134Z,99754.03
2024-05-09T06:25:41.794Z,99744.63
2024-05-09T06:28:09.128Z,99746.56
2024-05-09T06:30:40.405Z,99748.44
2024-05-09T06:33:12.748Z,99749.63
2024-05-09T06:35:42.091Z,99752.16
2024-05-09T06:38:09.947Z,99752.75
2024-05-09T06:40:41.918Z,99751.88
2024-05-09T06:43:16.160Z,99752.41
2024-05-09T06:45:46.923Z,99757.38
2024-05-09T06:48:14.896Z,99751.13
2024-05-09T06:50:42.287Z,99756.66
2024-05-09T06:53:10.090Z,99751.13
2024-05-09T06:55:37.987Z,99751.72
2024-05-09T06:58:09.117Z,99752.84
2024-05-09T07:00:39.824Z,99757.69
2024-05-09T07:03:16.867Z,99757.66
2024-05-09T07:05:47.704Z,99765.63
2024-05-09T07:08:16.696Z,99760.38
2024-05-09T07:10:45.089Z,99759.25
2024-05-09T07:13:15.100Z,99752.97
2024-05-09T07:15:43.810Z,99761.03
2024-05-09T07:18:13.226Z,99746.00
2024-05-09T07:20:41.452Z,99745.53
2024-05-09T07:23:10.609Z,99743.47
2024-05-09T07:25:40.649Z,99742.75
2024-05-09T07:28:17.044Z,99741.38
2024-05-09T07:30:45.188Z,99735.19
2024-05-09T07:33:22.061Z,99741.50
2024-05-09T07:35:51.210Z,99737.19
2024-05-09T07:38:18.718Z,99733.09
2024-05-09T07:40:46.271Z,99734.97
2024-05-09T07:43:16.848Z,99731.13
2024-05-09T07:45:52.311Z,99710.91
2024-05-09T07:52:38.817Z,99711.53
2024-05-09T07:53:47.650Z,99707.41
2024-05-09T07:56:20.107Z,99700.53
2024-05-09T07:58:51.540Z,99706.81
2024-05-09T08:01:19.641Z,99695.78
2024-05-09T08:03:49.543Z,99695.22
2024-05-09T08:06:17.020Z,99686.47
2024-05-09T08:08:46.783Z,99681.00
2024-05-09T08:11:14.362Z,99679.94
2024-05-09T08:13:41.658Z,99680.53
2024-05-09T08:16:09.765Z,99680.16
2024-05-09T08:18:37.315Z,99686.78
2024-05-09T08:21:05.200Z,99679.13
2024-05-09T08:23:32.512Z,99676.81
2024-05-09T08:25:59.921Z,99682.59
2024-05-09T08:28:28.106Z,99675.91
2024-05-09T08:30:56.841Z,99671.81
2024-05-09T08:33:24.451Z,99676.81
2024-05-09T08:35:54.247Z,99675.38
2024-05-09T08:38:21.600Z,99678.09
2024-05-09T08:40:49.620Z,99671.00
2024-05-09T08:43:20.280Z,99672.03
2024-05-09T08:45:50.023Z,99663.25
2024-05-09T08:48:19.767Z,99661.09
2024-05-09T08:50:52.154Z,99664.41
2024-05-09T08:53:20.024Z,99663.94
2024-05-09T08:55:49.620Z,99666.44
2024-05-09T08:58:19.238Z,99657.09
2024-05-09T09:00:47.833Z,99659.72
2024-05-09T09:03:24.869Z,99659.53
2024-05-09T09:06:15.841Z,99657.44
2024-05-09T09:08:45.715Z,99649.19
2024-05-09T09:11:13.047Z,99650.41
2024-05-09T09:13:40.569Z,99655.84
2024-05-09T09:16:08.171Z,99658.66
2024-05-09T09:18:35.535Z,99655.50
2024-05-09T09:21:03.547Z,99661.78
2024-05-09T09:23:30.989Z,99656.16
2024-05-09T09:25:59.911Z,99664.28
2024-05-09T09:28:27.402Z,99660.88
2024-05-09T09:31:03.397Z,99657.72
2024-05-09T09:33:36.307Z,99654.88
2024-05-09T09:36:05.813Z,99658.31
2024-05-09T09:38:37.846Z,99647.50
2024-05-09T09:41:09.083Z,99653.56
2024-05-09T09:43:37.870Z,99649.28
2024-05-09T09:46:08.797Z,99661.06
2024-05-09T09:48:40.493Z,99647.09
2024-05-09T09:51:09.213Z,99650.25
2024-05-09T09:53:38.573Z,99643.91
2024-05-09T09:56:10.323Z,99640.09
2024-05-09T09:58:40.207Z,99647.66
2024-05-09T10:01:07.511Z,99644.78
2024-05-09T10:03:36.124Z,99645.34
2024-05-09T10:06:05.377Z,99646.25
2024-05-09T10:08:34.134Z,99646.81
2024-05-09T10:11:04.328Z,99630.56
2024-05-09T10:13:35.988Z,99638.38
2024-05-09T10:16:12.380Z,99634.63
2024-05-09T10:18:41.455Z,99635.63
2024-05-09T10:21:19.790Z,99630.50
2024-05-09T10:24:02.490Z,99633.47
2024-05-09T10:26:39.663Z,99628.78
2024-05-09T10:29:15.233Z,99635.97
2024-05-09T10:31:44.486Z,99631.00
2024-05-09T10:34:21.012Z,99635.03
2024-05-09T10:36:55.370Z,99624.47
2024-05-09T10:39:25.152Z,99632.03
2024-05-09T10:41:52.649Z,99622.97
2024-05-09T10:44:21.897Z,99615.44
2024-05-09T10:46:50.388Z,99622.59
2024-05-09T10:49:17.984Z,99614.47
2024-05-09T10:51:47.174Z,99605.69
2024-05-09T10:54:14.643Z,99617.56
2024-05-09T10:56:42.142Z,99601.78
2024-05-09T10:59:09.416Z,99607.00
2024-05-09T11:01:37.260Z,99611.31
2024-05-09T11:04:05.622Z,99602.31
2024-05-09T11:06:35.006Z,99597.09
2024-05-09T11:09:02.395Z,99595.66
2024-05-09T11:11:30.029Z,99597.84
2024-05-09T11:13:57.270Z,99581.53
2024-05-09T11:16:24.726Z,99589.69
2024-05-09T11:18:57.899Z,99588.72
2024-05-09T11:21:25.785Z,99589.00
2024-05-09T11:23:53.340Z,99582.63
2024-05-09T11:26:22.107Z,99583.53
2024-05-09T11:28:50.649Z,99579.03
2024-05-09T11:31:18.467Z,99571.44
2024-05-09T11:33:46.677Z,99578.19
2024-05-09T11:36:14.995Z,99572.88
2024-05-09T11:38:43.061Z,99575.16
2024-05-09T11:41:18.501Z,99577.53
2024-05-09T11:43:46.049Z,99581.03
2024-05-09T11:46:13.737Z,99564.84
2024-05-09T11:48:41.610Z,99571.59
2024-05-09T11:51:09.066Z,99565.66
2024-05-09T11:53:36.503Z,99562.09
2024-05-09T11:56:04.101Z,99552.59
2024-05-09T11:58:37.037Z,99552.31
2024-05-09T12:01:05.005Z,99553.34
2024-05-09T12:03:34.269Z,99547.44
2024-05-09T12:06:01.752Z,99549.31
2024-05-09T12:08:29.240Z,99547.25
2024-05-09T12:10:57.059Z,99552.06
2024-05-09T12:13:24.730Z,99537.88
2024-05-09T12:15:51.904Z,99542.94
2024-05-09T12:18:19.268Z,99548.72
2024-05-09T12:20:46.574Z,99539.84
2024-05-09T12:23:13.815Z,99535.53
2024-05-09T12:25:41.134Z,99532.81
2024-05-09T12:28:09.078Z,99528.06
2024-05-09T12:30:40.181Z,99519.78
2024-05-09T12:33:13.522Z,99516.34
2024-05-09T12:35:44.449Z,99517.78
2024-05-09T12:38:15.310Z,99521.63
2024-05-09T12:40:43.376Z,99513.72
2024-05-09T12:43:11.657Z,99514.91
2024-05-09T12:45:40.177Z,99513.38
2024-05-09T12:48:12.044Z,99510.03
2024-05-09T12:50:41.248Z,99513.50
2024-05-09T12:53:08.903Z,99513.53
2024-05-09T12:55:44.294Z,99518.88
2024-05-09T12:58:21.831Z,99515.72
2024-05-09T13:00:50.644Z,99509.72
2024-05-09T13:03:18.024Z,99497.19
2024-05-09T13:05:46.088Z,99493.81
2024-05-09T13:08:14.035Z,99493.53
2024-05-09T13:10:42.103Z,99495.88
2024-05-09T13:13:10.905Z,99496.41
2024-05-09T13:15:38.813Z,99494.69
2024-05-09T13:18:06.937Z,99492.19
2024-05-09T13:20:36.740Z,99484.13
2024-05-09T13:23:07.244Z,99492.81
2024-05-09T13:25:38.567Z,99485.38
2024-05-09T13:28:07.626Z,99479.47
2024-05-09T13:30:40.271Z,99476.06
2024-05-09T13:33:11.922Z,99467.38
2024-05-09T13:35:45.745Z,99474.94
2024-05-09T13:38:18.236Z,99475.22
2024-05-09T13:40:45.801Z,99468.66
2024-05-09T13:43:14.084Z,99474.16
2024-05-09T13:45:41.648Z,99474.34
2024-05-09T13:48:10.140Z,99465.22
2024-05-09T13:50:38.954Z,99461.03
2024-05-09T13:53:07.765Z,99457.47
2024-05-09T13:55:40.204Z,99463.28
2024-05-09T13:58:09.020Z,99452.69
2024-05-09T14:00:45.233Z,99449.59
2024-05-09T14:03:18.686Z,99451.22
2024-05-09T14:05:49.401Z,99450.69
2024-05-09T14:08:20.291Z,99443.47
2024-05-09T14:10:49.004Z,99441.47
2024-05-09T14:13:16.995Z,99435.97
2024-05-09T14:15:46.052Z,99428.59
2024-05-09T14:18:14.432Z,99439.81
2024-05-09T14:20:42.968Z,99435.38
2024-05-09T14:23:14.430Z,99431.16
2024-05-09T14:25:43.391Z,99429.34
2024-05-09T14:28:13.058Z,99427.56
2024-05-09T14:30:41.516Z,99418.69
2024-05-09T14:33:09.613Z,99421.56
2024-05-09T14:35:38.715Z,99415.25
2024-05-09T14:38:08.708Z,99406.50
2024-05-09T14:40:42.293Z,99410.72
2024-05-09T14:43:15.871Z,99403.75
2024-05-09T14:45:44.717Z,99409.66
2024-05-09T14:48:14.956Z,99409.59
2024-05-09T14:50:42.888Z,99405.84
2024-05-09T14:53:12.313Z,99402.44
2024-05-09T14:55:42.271Z,99402.78
2024-05-09T14:58:11.977Z,99401.84
2024-05-09T15:00:46.151Z,99397.31
2024-05-09T15:03:18.730Z,99397.19
2024-05-09T15:05:47.454Z,99393.34
2024-05-09T15:08:17.310Z,99387.28
2024-05-09T15:10:44.799Z,99380.44
2024-05-09T15:13:14.392Z,99372.88
2024-05-09T15:15:43.815Z,99388.44
2024-05-09T15:18:11.385Z,99381.44
2024-05-09T15:20:40.376Z,99376.19
2024-05-09T15:23:07.811Z,99372.09
2024-05-09T15:25:36.893Z,99370.91
2024-05-09T15:28:07.345Z,99382.84
2024-05-09T15:30:35.541Z,99374.88
2024-05-09T15:33:07.073Z,99376.41
2024-05-09T15:35:35.971Z,99380.59
2024-05-09T15:38:04.260Z,99375.91
2024-05-09T15:40:39.038Z,99368.91
2024-05-09T15:43:10.191Z,99372.28
2024-05-09T15:45:40.859Z,99355.47
2024-05-09T15:48:10.226Z,99357.00
2024-05-09T15:50:41.305Z,99357.34
2024-05-09T15:53:13.117Z,99347.50
2024-05-09T15:55:42.093Z,99355.31
2024-05-09T15:58:10.166Z,99353.19
2024-05-09T16:00:41.422Z,99354.84
2024-05-09T16:03:12.499Z,99350.84
2024-05-09T16:05:41.800Z,99345.00
2024-05-09T16:08:10.246Z,99346.34
2024-05-09T16:10:43.217Z,99345.84
2024-05-09T16:13:12.199Z,99354.00
2024-05-09T16:15:39.622Z,99348.72
2024-05-09T16:18:07.420Z,99344.97
2024-05-09T16:20:39.979Z,99337.03
2024-05-09T16:23:10.110Z,99341.72
2024-05-09T16:25:38.789Z,99348.16
2024-05-09T16:28:09.940Z,99339.66
2024-05-09T16:30:40.008Z,99339.09
2024-05-09T16:33:08.658Z,99331.22
2024-05-09T16:35:37.478Z,99329.53
2024-05-09T16:38:06.047Z,99345.34
2024-05-09T16:40:38.195Z,99332.66
2024-05-09T16:43:13.185Z,99339.34
2024-05-09T16:45:44.582Z,99338.25
2024-05-09T16:48:13.179Z,99337.38
2024-05-09T16:50:40.615Z,99337.53
2024-05-09T16:53:08.687Z,99338.06
2024-05-09T16:55:36.456Z,99339.59
2024-05-09T16:58:05.116Z,99333.97
2024-05-09T17:00:40.357Z,99329.94
2024-05-09T17:03:14.436Z,99341.69
2024-05-09T17:05:43.932Z,99325.94
2024-05-09T17:08:12.107Z,99330.75
2024-05-09T17:10:39.492Z,99336.97
2024-05-09T17:13:08.038Z,99341.22
2024-05-09T17:15:37.536Z,99333.50
2024-05-09T17:18:07.352Z,99333.47
2024-05-09T17:20:37.253Z,99330.28
2024-05-09T17:23:13.131Z,99333.34
2024-05-09T17:25:41.664Z,99333.41
2024-05-09T17:28:10.521Z,99328.03
2024-05-09T17:30:39.939Z,99332.63
2024-05-09T17:33:10.406Z,99329.78
2024-05-09T17:35:38.710Z,99341.34
2024-05-09T17:38:06.864Z,99335.81
2024-05-09T17:40:36.889Z,99340.66
2024-05-09T17:43:08.391Z,99337.69
2024-05-09T17:45:38.971Z,99333.91
2024-05-09T17:48:07.833Z,99342.41
2024-05-09T17:50:37.350Z,99333.97
2024-05-09T17:53:06.536Z,99331.09
2024-05-09T17:55:34.968Z,99337.16
2024-05-09T17:58:03.382Z,99345.44
2024-05-09T18:00:37.903Z,99341.66
2024-05-09T18:03:13.199Z,99333.50
2024-05-09T18:05:43.519Z,99338.00
2024-05-09T18:08:12.242Z,99336.41
2024-05-09T18:10:41.213Z,99333.22
2024-05-09T18:13:09.660Z,99338.50
2024-05-09T18:15:37.833Z,99331.88
2024-05-09T18:18:06.817Z,99338.94
2024-05-09T18:20:43.213Z,99333.50
2024-05-09T18:23:16.337Z,99335.81
2024-05-09T18:25:45.882Z,99343.28
2024-05-09T18:28:13.671Z,99344.22
2024-05-09T18:30:41.230Z,99349.25
2024-05-09T18:33:11.189Z,99343.66
2024-05-09T18:35:41.032Z,99341.59
2024-05-09T18:38:10.219Z,99339.31
2024-05-09T18:40:38.807Z,99341.44
2024-05-09T18:43:08.903Z,99341.88
2024-05-09T18:45:38.317Z,99347.88
2024-05-09T18:48:08.243Z,99348.16
2024-05-09T18:50:39.582Z,99342.69
2024-05-09T18:53:11.411Z,99342.75
2024-05-09T18:55:40.495Z,99348.91
2024-05-09T18:58:07.821Z,99349.75
2024-05-09T19:00:38.493Z,99355.75
2024-05-09T19:03:10.768Z,99358.28
2024-05-09T19:05:40.952Z,99365.19
2024-05-09T19:08:09.111Z,99366.78
2024-05-09T19:10:39.271Z,99378.25
2024-05-09T19:13:11.890Z,99371.59
2024-05-09T19:15:42.468Z,99373.59
2024-05-09T19:18:13.226Z,99371.38
2024-05-09T19:20:41.467Z,99381.69
2024-05-09T19:23:09.598Z,99376.63
2024-05-09T19:25:36.918Z,99380.53
2024-05-09T19:28:05.665Z,99386.94
2024-05-09T19:30:38.918Z,99393.28
2024-05-09T19:33:11.260Z,99393.28
2024-05-09T19:35:39.962Z,99400.38
2024-05-09T19:38:07.620Z,99400.09
2024-05-09T19:40:35.719Z,99392.84
2024-05-09T19:43:05.130Z,99405.50
2024-05-09T19:45:35.138Z,99400.16
2024-05-09T19:48:04.679Z,99397.34
2024-05-09T19:50:40.428Z,99401.03
2024-05-09T19:53:12.834Z,99399.63
2024-05-09T19:55:41.256Z,99396.81
2024-05-09T19:58:10.201Z,99402.72
2024-05-09T20:00:41.487Z,99396.50
2024-05-09T20:03:13.176Z,99402.44
2024-05-09T20:05:44.346Z,99401.28
2024-05-09T20:08:12.740Z,99394.00
2024-05-09T20:10:40.104Z,99404.66
2024-05-09T20:13:10.109Z,99409.72
2024-05-09T20:15:38.077Z,99400.72
2024-05-09T20:18:06.756Z,99406.56
2024-05-09T20:20:39.376Z,99406.28
2024-05-09T20:23:11.252Z,99403.47
2024-05-09T20:25:39.180Z,99407.84
2024-05-09T20:28:07.134Z,99401.06
2024-05-09T20:30:36.064Z,99405.91
2024-05-09T20:33:07.376Z,99396.03
2024-05-09T20:35:36.109Z,99404.66
2024-05-09T20:38:04.349Z,99402.69
2024-05-09T20:40:36.430Z,99400.94
2024-05-09T20:43:08.619Z,99389.78
2024-05-09T20:45:36.425Z,99402.41
2024-05-09T20:48:04.306Z,99400.94
2024-05-09T20:50:38.164Z,99394.94
2024-05-09T20:53:13.549Z,99395.84
2024-05-09T20:55:43.954Z,99404.88
2024-05-09T20:58:12.195Z,99406.34
2024-05-09T21:00:43.224Z,99414.88
2024-05-09T21:03:16.181Z,99411.97
2024-05-09T21:05:45.370Z,99408.69
2024-05-09T21:08:12.848Z,99414.66
2024-05-09T21:10:40.210Z,99411.84
2024-05-09T21:13:07.655Z,99406.56
2024-05-09T21:15:36.003Z,99404.22
2024-05-09T21:18:04.558Z,99405.59
2024-05-09T21:20:34.425Z,99402.88
2024-05-09T21:23:02.606Z,99405.91
2024-05-09T21:25:30.930Z,99409.59
2024-05-09T21:27:58.538Z,99410.16
2024-05-09T21:30:33.163Z,99412.22
2024-05-09T21:33:10.236Z,99409.34
2024-05-09T21:35:39.120Z,99405.72
2024-05-09T21:38:07.335Z,99410.16
2024-05-09T21:40:36.676Z,99408.19
2024-05-09T21:43:07.396Z,99413.56
2024-05-09T21:45:35.957Z,99410.50
2024-05-09T21:48:04.866Z,99409.47
2024-05-09T21:50:39.346Z,99406.13
2024-05-09T21:53:09.864Z,99409.47
2024-05-09T21:55:37.197Z,99411.50
2024-05-09T21:58:04.878Z,99414.88
2024-05-09T22:00:39.574Z,99412.19
2024-05-09T22:03:08.668Z,99409.47
2024-05-09T22:05:37.574Z,99402.53
2024-05-09T22:08:05.940Z,99397.78
2024-05-09T22:10:35.619Z,99408.13
2024-05-09T22:13:06.560Z,99406.22
2024-05-09T22:15:40.030Z,99404.25
2024-05-09T22:18:09.866Z,99408.81
2024-05-09T22:20:45.530Z,99402.91
2024-05-09T22:23:14.449Z,99398.72
2024-05-09T22:25:42.443Z,99403.44
2024-05-09T22:28:10.058Z,99408.94
2024-05-09T22:30:39.684Z,99405.78
2024-05-09T22:33:09.763Z,99401.94
2024-05-09T22:35:38.602Z,99405.72
2024-05-09T22:38:06.686Z,99402.50
2024-05-09T22:40:43.393Z,99407.56
2024-05-09T22:43:24.201Z,99402.03
2024-05-09T22:45:55.979Z,99417.03
2024-05-09T22:48:25.302Z,99405.47
2024-05-09T22:50:53.809Z,99414.41
2024-05-09T22:53:25.540Z,99417.38
2024-05-09T22:55:53.374Z,99421.16
2024-05-09T22:58:21.339Z,99425.16
2024-05-09T23:00:48.810Z,99417.59
2024-05-09T23:03:16.868Z,99419.94
2024-05-09T23:05:44.426Z,99418.88
2024-05-09T23:08:11.738Z,99418.97
2024-05-09T23:10:39.116Z,99422.06
2024-05-09T23:13:08.163Z,99415.75
2024-05-09T23:15:38.471Z,99424.81
2024-05-09T23:18:06.836Z,99420.19
2024-05-09T23:20:38.436Z,99425.19
2024-05-09T23:23:11.683Z,99423.25
2024-05-09T23:25:41.671Z,99425.97
2024-05-09T23:28:10.474Z,99422.00
2024-05-09T23:30:40.366Z,99421.44
2024-05-09T23:33:13.590Z,99426.56
2024-05-09T23:35:46.306Z,99427.09
2024-05-09T23:38:13.618Z,99423.69
2024-05-09T23:40:42.325Z,99424.38
2024-05-09T23:43:12.131Z,99427.00
2024-05-09T23:45:40.946Z,99422.81
2024-05-09T23:48:09.174Z,99422.88
2024-05-09T23:50:38.767Z,99422.59
2024-05-09T23:53:09.195Z,99415.94
2024-05-09T23:55:37.926Z,99417.28
2024-05-09T23:58:06.957Z,99413.88
